Agua Nueva, Texas
Current Conditions -  °F | °C
As of 4:35 AM on Thursday 27 Nov 2014 (Local Time) from KHBV Reporting Station
Clear Clear  
Wind Chill: 42°   Ceiling: Unl
Heat Index: 45°   Visibility: 10mi
Dew Point: 39°   Wind: 6mph
Humidity: 80%   Direction: 330°NNW
Pressure: 30.33"   Gusts: NA
Location:  27.0695°N, 98.7494°W
Report Text: KHBV 271035Z AUTO 33005KT 10SM CLR 07/04 A3033 RMK AO2 T00720040
Loading
Personal Weather Stations






























Interactive Weather Map New forecast layout! Learn more

10-Day Weather Forecast

Advertisements
Track Severe Weather on mobile